Central Aleutians 230nm Sw Dutch Harbor (46072) Wave Buoy

5:50pm - Wed 26th Oct 2016 All times are UTC.

  • Sig Wave height 15.1ft
  • Swell Direction
  • Peak Period 10s
  • Average Period 8s
  • Wind
    29mph, 36mph gusts
  • Sea Temp 48°f
  • 空気 Temp 47°f
  • Sea Pressure 1008mb

More Historic Weather Station data

Upgrade to MSW Pro to gain access to the past 30 days of data for over 8000 Wavebouys and Weather Stations around the globe.

Join Pro

Comparision Forecast

View Surf forecast
Wed 10/26 5:50pm 15ft 10s 8s 29 36 mph 1008mb 48f 47f
4:50pm 14.5ft 11s 8s 31 40 mph 1007.2mb 48f 47f
3:50pm 15.5ft 11s 8s 29 36 mph 1006.5mb 48f 47f
2:50pm 14ft 10s 8s 31 47 mph 1006.2mb 48f 46f
1:50pm 14ft 10s 8s 27 36 mph 1006.3mb 48f 46f
12:50pm 13ft 11s 8s 29 36 mph 1005.6mb 49f 47f
11:50am 13ft 11s 8s 29 34 mph 1005.2mb 49f 47f
10:50am 13.5ft 10s 8s 27 36 mph 1004.9mb 49f 47f
9:50am 13ft 11s 8s 29 38 mph 1004.3mb 49f 47f
8:50am 13ft 11s 8s 29 36 mph 1003.7mb 48f 47f
7:50am 13.5ft 10s 8s 27 34 mph 1003.1mb 48f 47f
6:50am 13ft 10s 8s 27 31 mph 1003.1mb 48f 47f
5:50am 12.5ft 11s 8s 25 29 mph 1002.9mb 49f 47f
4:50am 12ft 11s 8s 22 27 mph 1002.8mb 49f 47f
3:50am 12.5ft 11s 7s 22 29 mph 1002.6mb 49f 47f
2:50am 12.5ft 11s 8s 27 31 mph 1002.5mb 49f 47f
1:50am 11.5ft 11s 7s 25 34 mph 1003mb 49f 47f
12:50am 11ft 11s 8s 22 27 mph 1003.5mb 49f 47f
Tue 10/25 11:50pm 12ft 10s 8s 22 27 mph 1004.5mb 49f 47f
10:50pm 12ft 10s 8s 22 27 mph 1005.6mb 49f 47f
9:50pm 13ft 10s 8s 22 29 mph 1006.2mb 49f 47f
8:50pm 14ft 11s 8s 20 25 mph 1006.1mb 49f 47f
7:50pm 13ft 11s 8s 18 22 mph 1005.8mb 48f 47f
6:50pm 13.5ft 10s 8s 20 25 mph 1005.9mb 48f 47f
5:50pm 14ft 11s 8s 16 22 mph 1005.2mb 48f 47f
4:50pm 14ft 11s 8s 11 16 mph 1005.3mb 48f 47f
3:50pm 14ft 10s 9s 13 18 mph 1003.8mb 48f 46f
2:50pm 15.5ft 11s 9s 22 29 mph 1003.5mb 48f 46f
1:50pm 16ft 11s 9s 27 34 mph 1003.5mb 48f 47f
12:50pm 18.5ft 11s 9s 25 31 mph 1002.5mb 48f 47f
11:50am 16ft 12s 9s 25 31 mph 1000.7mb 49f 47f
10:50am 15.5ft 11s 8s 25 34 mph 998.9mb 49f 47f
9:50am 16.5ft 11s 8s 25 34 mph 997.7mb 49f 47f
8:50am 20ft 10s 9s 31 40 mph 996.7mb 49f 49f
7:50am 17.5ft 10s 8s 31 43 mph 997.2mb 49f 49f
6:50am 19.5ft 10s 8s 36 43 mph 997.4mb 49f 49f
5:50am 18ft 9s 8s 38 47 mph 998mb 49f 49f
4:50am 15.5ft 8s 7s 40 51 mph 998.5mb 49f 50f
3:50am 14ft 8s 7s 40 49 mph 999.6mb 49f 51f
2:50am 13ft 8s 7s 36 45 mph 1002.1mb 49f 50f
1:50am 12ft 8s 7s 34 43 mph 1004.4mb 49f 50f
12:50am 12.5ft 7s 7s 34 40 mph 1005.4mb 49f 49f
Mon 10/24 11:50pm 11ft 12s 7s 31 38 mph 1007.5mb 49f 49f
10:50pm 11ft 13s 7s 29 36 mph 1009.4mb 49f 49f
9:50pm 11ft 13s 7s 29 36 mph 1011.1mb 49f 48f
8:50pm 11ft 13s 8s 29 36 mph 1012.9mb 49f 48f
7:50pm 12ft 13s 8s 25 29 mph 1014.5mb 49f 48f
6:50pm 12ft 14s 8s 25 29 mph 1015.1mb 49f 48f
5:50pm 12.5ft 13s 8s 25 29 mph 1015.8mb 49f 48f
4:50pm 12.5ft 14s 8s 25 29 mph 1015.9mb 49f 48f
3:50pm 13ft 13s 8s 22 27 mph 1016.4mb 49f 47f
2:50pm 12.5ft 13s 8s 18 22 mph 1016.9mb 49f 48f
1:50pm 13ft 12s 8s 22 27 mph 1017.4mb 49f 48f
12:50pm 11ft 12s 8s 20 25 mph 1017.9mb 49f 48f
11:50am 12ft 13s 9s 18 22 mph 1017.5mb 49f 48f
10:50am 13ft 13s 9s 16 20 mph 1016.7mb 49f 48f
9:50am 13ft 13s 9s 18 20 mph 1016.6mb 49f 48f
8:50am 13ft 14s 9s 16 20 mph 1016.5mb 49f 48f
7:50am 14.5ft 15s 9s 16 22 mph 1016mb 49f 49f
6:50am 15ft 16s 9s 18 22 mph 1015.2mb 49f 49f
5:50am 15ft 16s 9s 22 29 mph 1014mb 49f 49f
4:50am 15.5ft 15s 9s 22 27 mph 1012.7mb 49f 49f
2:50am 15ft 14s 9s 20 27 mph 1010.6mb 49f 49f
1:50am 14ft 15s 9s 22 27 mph 1009.4mb 49f 49f
12:50am 13.5ft 16s 8s 25 29 mph 1008.1mb 49f 49f
Sun 10/23 11:50pm 12.5ft 12s 8s 22 29 mph 1007.1mb 49f 49f
10:50pm 12ft 12s 8s 25 29 mph 1006.4mb 49f 49f
9:50pm 11ft 15s 8s 25 29 mph 1005.9mb 49f 49f
8:50pm 11ft 14s 8s 25 31 mph 1005.1mb 49f 49f
7:50pm 11ft 11s 8s 22 29 mph 1004.8mb 49f 48f
6:50pm 10.5ft 10s 8s 25 29 mph 1003.9mb 49f 49f
5:50pm 11ft 10s 8s 25 29 mph 1003.6mb 49f 49f
4:50pm 11ft 10s 8s 22 29 mph 1002.8mb 49f 49f
3:50pm 11ft 10s 8s 20 27 mph 1002.1mb 49f 49f
2:50pm 10.5ft 10s 7s 22 29 mph 1001.3mb 49f 49f
1:50pm 12ft 9s 8s 20 25 mph 1000.8mb 49f 49f
12:50pm 11.5ft 9s 8s 20 27 mph 1000.1mb 49f 49f
11:50am 11ft 10s 8s 20 25 mph 999.6mb 49f 49f
10:50am 10.5ft 9s 7s 18 22 mph 999.1mb 49f 48f
9:50am 11ft 10s 7s 13 18 mph 999mb 49f 48f
8:50am 13ft 10s 7s 18 22 mph 998.6mb 49f 48f
7:50am 13ft 9s 7s 20 25 mph 998.8mb 49f 49f
6:50am 12.5ft 9s 7s 25 29 mph 999.3mb 49f 49f
5:50am 12.5ft 9s 7s 31 36 mph 998mb 49f 49f
4:50am 14ft 9s 7s 34 40 mph 998mb 49f 49f
3:50am 12.5ft 9s 7s 31 40 mph 1000mb 49f 49f
2:50am 14.5ft 8s 7s 29 36 mph 1002.1mb 49f 48f
1:50am 14.5ft 8s 7s 31 36 mph 1003.7mb 49f 48f
12:50am 14.5ft 8s 7s 31 40 mph 1004.1mb 49f 48f
Sat 10/22 11:50pm 15ft 8s 7s 34 40 mph 1005mb 49f 48f
10:50pm 13ft 11s 7s 31 40 mph 1007.1mb 49f 48f
9:50pm 13.5ft 14s 7s 34 40 mph 1009.1mb 49f 48f
8:50pm 12ft 8s 7s 34 40 mph 1009.8mb 49f 48f
7:50pm 12ft 8s 7s 34 38 mph 1010.3mb 49f 48f